Time;durP1;ratioP1;P1;durP2;ratioP2;P2;SDS_P1;SDS_P2;PMS_P1;PMS_P2;Temp;Humidity;BMP_temperature;BMP_pressure;BME280_temperature;BME280_humidity;BME280_pressure;Samples;Min_cycle;Max_cycle;Signal;HPM_P1;HPM_P2
2022/11/18 00:01:10;;;;;;;0.20;0.20;;;8.60;99.90;;;;;;5016549;28;20223;-50
2022/11/18 00:03:40;;;;;;;1.17;0.20;;;8.70;99.90;;;;;;5020400;28;20247;-52
2022/11/18 00:06:08;;;;;;;0.43;0.20;;;8.70;99.90;;;;;;5025675;28;20755;-51
2022/11/18 00:08:35;;;;;;;0.10;0.10;;;8.80;99.90;;;;;;5024923;28;20684;-51
2022/11/18 00:11:05;;;;;;;0.53;0.20;;;8.70;99.90;;;;;;5025438;28;20283;-52
2022/11/18 00:16:17;;;;;;;0.37;0.37;;;8.70;99.90;;;;;;5029224;28;20207;-51
2022/11/18 00:18:45;;;;;;;1.00;0.33;;;8.60;99.90;;;;;;5028686;28;20270;-50
2022/11/18 00:21:12;;;;;;;2.33;0.10;;;8.70;99.90;;;;;;5030173;28;20204;-52
2022/11/18 00:23:40;;;;;;;2.13;0.20;;;8.60;99.90;;;;;;5028374;28;20261;-49
2022/11/18 00:26:09;;;;;;;0.73;0.27;;;8.60;99.90;;;;;;5028255;28;20619;-49
2022/11/18 00:28:36;;;;;;;0.83;0.20;;;8.70;99.90;;;;;;5028821;28;20833;-48
2022/11/18 00:31:04;;;;;;;1.10;0.27;;;8.70;99.90;;;;;;5028646;28;20200;-49
2022/11/18 00:33:32;;;;;;;0.30;0.30;;;8.70;99.90;;;;;;5028687;28;20223;-48
2022/11/18 00:36:00;;;;;;;0.77;0.13;;;8.60;99.90;;;;;;5028127;28;20204;-48
2022/11/18 00:38:29;;;;;;;0.50;0.30;;;8.60;99.90;;;;;;5030011;28;20208;-48
2022/11/18 00:41:00;;;;;;;0.20;0.20;;;8.60;99.90;;;;;;5020600;28;20303;-48
2022/11/18 00:43:26;;;;;;;0.50;0.17;;;8.50;99.90;;;;;;5026952;28;20229;-49
2022/11/18 00:45:53;;;;;;;0.40;0.40;;;8.50;99.90;;;;;;5023085;28;20204;-49
2022/11/18 00:48:20;;;;;;;0.30;0.30;;;8.60;99.90;;;;;;5016560;28;20812;-49
2022/11/18 00:50:48;;;;;;;0.23;0.20;;;8.50;99.90;;;;;;5028415;28;20216;-49
2022/11/18 00:53:17;;;;;;;0.30;0.30;;;8.50;99.90;;;;;;5027840;28;20293;-48
2022/11/18 00:55:44;;;;;;;0.30;0.20;;;8.50;99.90;;;;;;5028325;28;20200;-49
2022/11/18 00:58:13;;;;;;;0.97;0.40;;;8.50;99.90;;;;;;5028183;28;20204;-48
2022/11/18 01:00:41;;;;;;;0.30;0.10;;;8.50;99.90;;;;;;5028792;28;20580;-48
2022/11/18 01:03:08;;;;;;;0.40;0.20;;;8.50;99.90;;;;;;5026397;28;20248;-49
2022/11/18 01:05:36;;;;;;;0.60;0.20;;;8.50;99.90;;;;;;5028158;28;20225;-48
2022/11/18 01:08:03;;;;;;;0.30;0.20;;;8.50;99.90;;;;;;5028096;28;20631;-48
2022/11/18 01:10:33;;;;;;;0.30;0.30;;;8.50;99.90;;;;;;5027828;28;20204;-48
2022/11/18 01:15:46;;;;;;;1.60;0.50;;;8.40;99.90;;;;;;5027146;28;20206;-49
2022/11/18 01:18:13;;;;;;;1.07;0.30;;;8.40;99.90;;;;;;5023418;28;20256;-49
2022/11/18 01:20:40;;;;;;;0.33;0.33;;;8.50;99.90;;;;;;5029758;28;20620;-49
2022/11/18 01:23:07;;;;;;;0.80;0.30;;;8.50;99.90;;;;;;5029510;28;20239;-48
2022/11/18 01:25:37;;;;;;;0.50;0.40;;;8.50;99.90;;;;;;5030502;28;20329;-49
2022/11/18 01:28:04;;;;;;;0.50;0.50;;;8.50;99.90;;;;;;5032545;28;20689;-49
2022/11/18 01:30:34;;;;;;;0.60;0.60;;;8.50;99.90;;;;;;5032598;28;20284;-49
2022/11/18 01:33:02;;;;;;;0.63;0.60;;;8.50;99.90;;;;;;5031450;28;20309;-49
2022/11/18 01:35:30;;;;;;;1.30;0.60;;;8.50;99.90;;;;;;5029940;28;20211;-49
2022/11/18 01:37:56;;;;;;;3.13;1.23;;;8.50;99.90;;;;;;5032976;28;20228;-49
2022/11/18 01:40:26;;;;;;;0.80;0.80;;;8.50;99.90;;;;;;5031935;28;20581;-48
2022/11/18 01:42:54;;;;;;;2.30;0.70;;;8.50;99.90;;;;;;5030408;28;20224;-48
2022/11/18 01:45:33;;;;;;;3.53;0.50;;;8.50;99.90;;;;;;5031351;28;20236;-49
2022/11/18 01:48:07;;;;;;;2.37;0.67;;;8.50;99.90;;;;;;5022003;28;20580;-48
2022/11/18 01:50:38;;;;;;;1.13;0.50;;;8.50;99.90;;;;;;5031503;28;20200;-49
2022/11/18 01:53:12;;;;;;;0.97;0.87;;;8.50;99.90;;;;;;5020914;28;20636;-48
2022/11/18 01:55:44;;;;;;;0.90;0.90;;;8.50;99.90;;;;;;5028575;28;20662;-48
2022/11/18 01:58:19;;;;;;;0.80;0.70;;;8.60;99.90;;;;;;5028499;28;20208;-49
2022/11/18 02:00:46;;;;;;;1.33;0.70;;;8.60;99.90;;;;;;5030473;28;20256;-49
2022/11/18 02:03:15;;;;;;;1.77;0.73;;;8.60;99.90;;;;;;5030919;28;20229;-49
2022/11/18 02:05:46;;;;;;;0.90;0.90;;;8.50;99.90;;;;;;5029566;28;20269;-48
2022/11/18 02:08:14;;;;;;;0.80;0.80;;;8.50;99.90;;;;;;5032369;28;20629;-49
2022/11/18 02:10:41;;;;;;;1.27;1.00;;;8.50;99.90;;;;;;5030695;28;20259;-48
2022/11/18 02:13:08;;;;;;;1.30;0.97;;;8.50;99.90;;;;;;5028454;28;20222;-48
2022/11/18 02:15:47;;;;;;;2.00;0.80;;;8.40;99.90;;;;;;5024045;28;20554;-48
2022/11/18 02:18:23;;;;;;;1.70;0.87;;;8.40;99.90;;;;;;5020784;28;20227;-49
2022/11/18 02:20:54;;;;;;;1.23;1.23;;;8.40;99.90;;;;;;5030221;28;20212;-49
2022/11/18 02:24:08;;;;;;;2.03;1.00;;;8.40;99.90;;;;;;5025773;28;20230;-48
2022/11/18 02:27:01;;;;;;;1.23;1.23;;;8.50;99.90;;;;;;5025756;28;20266;-48
2022/11/18 02:29:32;;;;;;;3.93;1.57;;;8.50;99.90;;;;;;5030727;28;20262;-48
2022/11/18 02:32:04;;;;;;;1.77;1.73;;;8.50;99.90;;;;;;5023268;28;20733;-48
2022/11/18 02:34:41;;;;;;;0.70;0.70;;;8.40;99.90;;;;;;5030324;28;20197;-49
2022/11/18 02:37:16;;;;;;;0.50;0.50;;;8.50;99.90;;;;;;5029734;28;20205;-49
2022/11/18 02:39:50;;;;;;;0.20;0.20;;;8.50;99.90;;;;;;5026919;28;20208;-49
2022/11/18 02:42:17;;;;;;;0.00;0.00;;;8.40;99.90;;;;;;5027032;28;20217;-48
2022/11/18 02:44:50;;;;;;;0.00;0.00;;;8.40;99.90;;;;;;5026504;28;20268;-49
2022/11/18 02:47:20;;;;;;;1.13;0.10;;;8.30;99.90;;;;;;5028943;28;20209;-49
2022/11/18 02:49:50;;;;;;;0.40;0.00;;;8.30;99.90;;;;;;5030309;28;20258;-49
2022/11/18 02:52:19;;;;;;;0.00;0.00;;;8.30;99.90;;;;;;5030810;28;20228;-48
2022/11/18 02:54:49;;;;;;;0.00;0.00;;;8.30;99.90;;;;;;5030325;28;20254;-49
2022/11/18 02:57:18;;;;;;;0.00;0.00;;;8.20;99.90;;;;;;5023261;28;20271;-48
2022/11/18 02:59:47;;;;;;;0.00;0.00;;;8.30;99.90;;;;;;5028199;28;20255;-48
2022/11/18 03:02:17;;;;;;;0.13;0.00;;;8.20;99.90;;;;;;5028954;28;20229;-49
2022/11/18 03:04:45;;;;;;;0.20;0.20;;;8.10;99.90;;;;;;5030570;28;20240;-49
2022/11/18 03:07:19;;;;;;;0.10;0.00;;;8.20;99.90;;;;;;5030538;28;20714;-49
2022/11/18 03:09:50;;;;;;;0.40;0.00;;;8.20;99.90;;;;;;5030634;28;20212;-48
2022/11/18 03:12:30;;;;;;;0.00;0.00;;;8.10;99.90;;;;;;5031194;28;20381;-49
2022/11/18 03:15:05;;;;;;;0.00;0.00;;;8.10;99.90;;;;;;5023584;28;20253;-48
2022/11/18 03:17:45;;;;;;;1.20;0.00;;;8.00;99.90;;;;;;5030229;28;20209;-49
2022/11/18 03:20:20;;;;;;;0.20;0.00;;;8.10;99.90;;;;;;5024107;28;20208;-49
2022/11/18 03:22:52;;;;;;;0.00;0.00;;;8.20;99.90;;;;;;5022576;28;22018;-49
2022/11/18 03:25:22;;;;;;;0.00;0.00;;;8.10;99.90;;;;;;5028438;28;20232;-49
2022/11/18 03:27:56;;;;;;;0.00;0.00;;;8.10;99.90;;;;;;5023698;28;20251;-49
2022/11/18 03:30:25;;;;;;;0.00;0.00;;;8.00;99.90;;;;;;5022614;28;20208;-49
2022/11/18 03:32:57;;;;;;;0.30;0.00;;;8.10;99.90;;;;;;5029531;28;20272;-48
2022/11/18 03:35:28;;;;;;;0.00;0.00;;;8.10;99.90;;;;;;5027426;28;20555;-48
2022/11/18 03:38:01;;;;;;;0.13;0.00;;;7.90;99.90;;;;;;5031069;28;20208;-48
2022/11/18 03:40:31;;;;;;;0.10;0.00;;;7.80;99.90;;;;;;5023274;28;20344;-49
2022/11/18 03:43:03;;;;;;;0.00;0.00;;;7.80;99.90;;;;;;5029521;28;20274;-48
2022/11/18 03:45:36;;;;;;;0.10;0.07;;;7.80;99.90;;;;;;5021776;28;20224;-48
2022/11/18 03:48:09;;;;;;;0.27;0.17;;;7.90;99.90;;;;;;5019925;28;20199;-48
2022/11/18 03:50:42;;;;;;;0.10;0.10;;;7.90;99.90;;;;;;5018944;28;20205;-49
2022/11/18 03:53:11;;;;;;;0.00;0.00;;;7.90;99.90;;;;;;5024031;28;20227;-49
2022/11/18 03:55:41;;;;;;;0.33;0.00;;;7.90;99.90;;;;;;5022221;28;20302;-49
2022/11/18 03:58:13;;;;;;;0.07;0.00;;;8.10;99.90;;;;;;5028298;28;20651;-49
2022/11/18 04:00:45;;;;;;;0.10;0.10;;;8.10;99.90;;;;;;5030322;28;20273;-49
2022/11/18 04:03:13;;;;;;;0.10;0.10;;;8.10;99.90;;;;;;5024337;28;20333;-49
2022/11/18 04:05:43;;;;;;;0.17;0.10;;;8.20;99.90;;;;;;5028497;28;20273;-49
2022/11/18 04:08:13;;;;;;;1.03;0.13;;;8.10;99.90;;;;;;5030034;28;20208;-49
2022/11/18 04:10:46;;;;;;;0.10;0.10;;;8.10;99.90;;;;;;5029156;28;20259;-48
2022/11/18 04:13:18;;;;;;;0.07;0.07;;;8.00;99.90;;;;;;5028831;28;20330;-49
2022/11/18 04:15:46;;;;;;;0.47;0.10;;;8.10;99.90;;;;;;5029575;28;20198;-49
2022/11/18 04:18:13;;;;;;;0.40;0.00;;;8.10;99.90;;;;;;5029328;28;20266;-48
2022/11/18 04:20:41;;;;;;;0.00;0.00;;;8.20;99.90;;;;;;5030568;28;20208;-48
2022/11/18 04:23:08;;;;;;;0.20;0.20;;;8.30;99.90;;;;;;5029711;28;20382;-48
2022/11/18 04:25:35;;;;;;;0.10;0.10;;;8.40;99.90;;;;;;5028264;28;20315;-49
2022/11/18 04:28:02;;;;;;;0.10;0.10;;;8.20;99.90;;;;;;5030275;28;20200;-49
2022/11/18 04:30:29;;;;;;;0.10;0.10;;;8.20;99.90;;;;;;5025267;28;20267;-48
2022/11/18 04:32:58;;;;;;;2.43;0.13;;;8.10;99.90;;;;;;5028912;28;20312;-49
2022/11/18 04:35:26;;;;;;;0.00;0.00;;;8.10;99.90;;;;;;5029379;28;20268;-48
2022/11/18 04:37:54;;;;;;;0.10;0.10;;;8.00;99.90;;;;;;5030254;28;20262;-49
2022/11/18 04:40:22;;;;;;;1.17;0.10;;;8.00;99.90;;;;;;5029570;28;20229;-48
2022/11/18 04:42:49;;;;;;;0.63;0.00;;;8.00;99.90;;;;;;5028894;28;20239;-48
2022/11/18 04:45:16;;;;;;;0.10;0.10;;;7.90;99.90;;;;;;5022791;28;20640;-49
2022/11/18 04:47:43;;;;;;;0.10;0.10;;;7.90;99.90;;;;;;5016783;28;20201;-49
2022/11/18 04:50:11;;;;;;;0.00;0.00;;;7.90;99.90;;;;;;5020704;28;20690;-49
2022/11/18 04:52:38;;;;;;;0.20;0.10;;;7.90;99.90;;;;;;5021431;28;20220;-49
2022/11/18 04:55:06;;;;;;;0.67;0.10;;;7.90;99.90;;;;;;5011783;28;20249;-49
2022/11/18 04:57:34;;;;;;;0.20;0.10;;;7.90;99.90;;;;;;5025453;28;20607;-49
2022/11/18 05:00:01;;;;;;;0.00;0.00;;;7.80;99.90;;;;;;5021793;28;20341;-49
2022/11/18 05:02:28;;;;;;;0.10;0.10;;;7.80;99.90;;;;;;5027880;28;20370;-48
2022/11/18 05:04:55;;;;;;;0.17;0.17;;;7.90;99.90;;;;;;5019881;28;20650;-49
2022/11/18 05:07:23;;;;;;;0.17;0.10;;;7.90;99.90;;;;;;5029635;28;20204;-49
2022/11/18 05:09:50;;;;;;;0.37;0.37;;;7.90;99.90;;;;;;5028986;28;20251;-49
2022/11/18 05:15:02;;;;;;;0.17;0.10;;;7.80;99.90;;;;;;5026032;28;20690;-49
2022/11/18 05:17:29;;;;;;;0.20;0.10;;;7.70;99.90;;;;;;5030189;28;20204;-49
2022/11/18 05:19:56;;;;;;;0.63;0.23;;;7.60;99.90;;;;;;5029347;28;20243;-48
2022/11/18 05:22:24;;;;;;;0.13;0.13;;;7.60;99.90;;;;;;5023360;28;20282;-48
2022/11/18 05:24:51;;;;;;;0.50;0.20;;;7.60;99.90;;;;;;5009366;28;20683;-48
2022/11/18 05:27:18;;;;;;;0.50;0.50;;;7.60;99.90;;;;;;5012630;28;20200;-48
2022/11/18 05:29:45;;;;;;;0.20;0.20;;;7.60;99.90;;;;;;5028631;28;20202;-49
2022/11/18 05:32:12;;;;;;;0.20;0.20;;;7.60;99.90;;;;;;5027552;28;20232;-49
2022/11/18 05:34:40;;;;;;;0.30;0.30;;;7.60;99.90;;;;;;5027665;28;20196;-49
2022/11/18 05:37:07;;;;;;;1.60;0.40;;;7.60;99.90;;;;;;5029802;28;20258;-49
2022/11/18 05:39:36;;;;;;;0.50;0.40;;;7.60;99.90;;;;;;5027886;28;20208;-49
2022/11/18 05:44:49;;;;;;;1.57;0.60;;;7.50;99.90;;;;;;5026947;28;20203;-49
2022/11/18 05:47:16;;;;;;;2.93;0.50;;;7.50;99.90;;;;;;5018534;28;20208;-48
2022/11/18 05:49:43;;;;;;;0.97;0.73;;;7.50;99.90;;;;;;5019932;28;20739;-49
2022/11/18 05:52:10;;;;;;;0.90;0.27;;;7.60;99.90;;;;;;5012716;28;20712;-48
2022/11/18 05:54:44;;;;;;;2.90;0.60;;;7.60;99.90;;;;;;5026839;28;20208;-48
2022/11/18 05:57:11;;;;;;;1.27;0.50;;;7.70;99.90;;;;;;5025512;28;20203;-49
2022/11/18 05:59:38;;;;;;;0.27;0.20;;;7.80;99.90;;;;;;5025708;28;20215;-48
2022/11/18 06:02:11;;;;;;;0.43;0.20;;;7.90;99.90;;;;;;5026311;28;20232;-49
2022/11/18 06:04:41;;;;;;;0.60;0.20;;;7.90;99.90;;;;;;5015813;28;20296;-49
2022/11/18 06:07:15;;;;;;;0.87;0.30;;;7.90;99.90;;;;;;5016002;28;20287;-48
2022/11/18 06:09:47;;;;;;;0.77;0.10;;;8.00;99.90;;;;;;5029945;28;20200;-48
2022/11/18 06:12:17;;;;;;;0.33;0.10;;;8.10;99.90;;;;;;5018503;28;20246;-48
2022/11/18 06:14:50;;;;;;;0.03;0.03;;;8.00;99.90;;;;;;5019147;28;20201;-48
2022/11/18 06:17:20;;;;;;;0.20;0.10;;;8.00;99.90;;;;;;5017793;28;20311;-49
2022/11/18 06:19:47;;;;;;;0.37;0.10;;;8.10;99.90;;;;;;5026728;28;20204;-48
2022/11/18 06:22:14;;;;;;;0.00;0.00;;;8.10;99.90;;;;;;5023552;28;20228;-48
2022/11/18 06:25:00;;;;;;;0.30;0.10;;;8.10;99.90;;;;;;5030151;28;20198;-48
2022/11/18 06:27:27;;;;;;;0.20;0.10;;;8.00;99.90;;;;;;5025338;28;20212;-51
2022/11/18 06:29:54;;;;;;;0.20;0.10;;;7.90;99.90;;;;;;5022308;28;20202;-48
2022/11/18 06:32:21;;;;;;;2.03;0.10;;;7.90;99.90;;;;;;5027097;28;20287;-49
2022/11/18 06:34:48;;;;;;;0.00;0.00;;;7.80;99.90;;;;;;5021743;28;20236;-49
2022/11/18 06:37:17;;;;;;;0.33;0.33;;;7.70;99.90;;;;;;5023897;28;20200;-49
2022/11/18 06:39:45;;;;;;;0.23;0.23;;;7.70;99.90;;;;;;5030569;28;20315;-49
2022/11/18 06:43:37;;;;;;;0.30;0.00;;;7.70;99.90;;;;;;5021736;28;20239;-49
2022/11/18 06:45:00;;;;;;;0.97;0.50;;;7.70;99.90;;;;;;5029503;28;20204;-48
2022/11/18 06:47:27;;;;;;;1.03;0.10;;;7.60;99.90;;;;;;5022416;28;20196;-48
2022/11/18 06:49:54;;;;;;;0.10;0.10;;;7.60;99.90;;;;;;5026662;28;20201;-49
2022/11/18 06:52:22;;;;;;;1.70;0.20;;;7.70;99.90;;;;;;5021864;28;20332;-51
2022/11/18 06:54:51;;;;;;;0.40;0.20;;;7.70;99.90;;;;;;5020501;28;20657;-51
2022/11/18 06:57:18;;;;;;;1.43;0.70;;;7.70;99.90;;;;;;5017756;28;20211;-52
2022/11/18 06:59:45;;;;;;;1.50;0.30;;;7.70;99.90;;;;;;5016348;28;20625;-51
2022/11/18 07:02:12;;;;;;;0.73;0.50;;;7.80;99.90;;;;;;5011618;28;20218;-51
2022/11/18 07:04:40;;;;;;;1.03;0.50;;;7.80;99.90;;;;;;5011167;28;20209;-51
2022/11/18 07:07:07;;;;;;;0.60;0.60;;;7.90;99.90;;;;;;5016700;28;20307;-51
2022/11/18 07:09:34;;;;;;;1.73;0.70;;;7.90;99.90;;;;;;5022298;28;20274;-51
2022/11/18 07:12:03;;;;;;;1.70;0.60;;;8.00;99.90;;;;;;5017729;28;20225;-52
2022/11/18 07:14:31;;;;;;;5.87;2.90;;;8.00;99.90;;;;;;5015689;28;20200;-52
2022/11/18 07:16:58;;;;;;;19.53;10.63;;;8.00;99.90;;;;;;5024461;28;20205;-51
2022/11/18 07:19:28;;;;;;;23.90;12.73;;;8.10;99.90;;;;;;5025393;28;20212;-51
2022/11/18 07:21:58;;;;;;;9.57;4.90;;;8.10;99.90;;;;;;5024448;28;20304;-52
2022/11/18 07:24:29;;;;;;;1.60;0.80;;;8.20;99.90;;;;;;5014372;28;20216;-51
2022/11/18 07:26:56;;;;;;;0.40;0.20;;;8.10;99.90;;;;;;5018904;28;20215;-51
2022/11/18 07:29:27;;;;;;;0.70;0.10;;;8.10;99.90;;;;;;5023392;28;20618;-51
2022/11/18 07:31:54;;;;;;;1.50;0.03;;;8.00;99.90;;;;;;5026745;28;20227;-52
2022/11/18 07:34:21;;;;;;;2.07;0.00;;;7.90;99.90;;;;;;5021884;28;20228;-51
2022/11/18 07:36:49;;;;;;;0.20;0.00;;;7.80;99.90;;;;;;5021038;28;20218;-51
2022/11/18 07:39:17;;;;;;;3.83;0.20;;;7.70;99.90;;;;;;5029890;28;20201;-52
2022/11/18 07:41:44;;;;;;;0.43;0.10;;;7.50;99.90;;;;;;5023137;28;20584;-50
2022/11/18 07:44:12;;;;;;;0.00;0.00;;;7.50;99.90;;;;;;5010658;28;20216;-51
2022/11/18 07:46:40;;;;;;;0.30;0.10;;;7.50;99.90;;;;;;5028772;28;20223;-49
2022/11/18 07:49:08;;;;;;;1.80;0.10;;;7.40;99.90;;;;;;5027242;28;20200;-50
2022/11/18 07:51:37;;;;;;;0.10;0.10;;;7.40;99.90;;;;;;5023472;28;20220;-51
2022/11/18 07:54:07;;;;;;;0.00;0.00;;;7.40;99.90;;;;;;5021872;28;20296;-50
2022/11/18 07:56:34;;;;;;;0.00;0.00;;;7.50;99.90;;;;;;5014431;28;20200;-51
2022/11/18 07:59:03;;;;;;;0.20;0.20;;;7.50;99.90;;;;;;5024529;28;20199;-52
2022/11/18 08:01:30;;;;;;;0.30;0.30;;;7.50;99.90;;;;;;5024725;28;20684;-50
2022/11/18 08:04:05;;;;;;;0.93;0.50;;;7.60;99.90;;;;;;5027944;28;20226;-52
2022/11/18 08:06:33;;;;;;;0.30;0.20;;;7.60;99.90;;;;;;5022925;28;20288;-50
2022/11/18 08:09:00;;;;;;;0.20;0.20;;;7.70;99.90;;;;;;5022776;28;20204;-51
2022/11/18 08:11:27;;;;;;;0.20;0.20;;;7.80;99.90;;;;;;5029212;28;20205;-51
2022/11/18 08:13:54;;;;;;;0.35;0.35;;;7.80;99.90;;;;;;5019008;28;20454;-53
2022/11/18 08:16:24;;;;;;;0.73;0.40;;;7.90;99.90;;;;;;5019331;28;20580;-52
2022/11/18 08:18:52;;;;;;;0.67;0.27;;;8.00;99.90;;;;;;5021842;28;20303;-52
2022/11/18 08:21:23;;;;;;;2.03;0.30;;;8.10;99.90;;;;;;5030575;28;20744;-51
2022/11/18 08:23:50;;;;;;;2.63;0.50;;;8.10;99.90;;;;;;5029485;28;20599;-51
2022/11/18 08:26:18;;;;;;;3.40;0.70;;;8.20;99.90;;;;;;5031619;28;20234;-51
2022/11/18 08:28:45;;;;;;;1.40;0.40;;;8.10;99.90;;;;;;5026236;28;20213;-52
2022/11/18 08:31:14;;;;;;;0.43;0.40;;;8.10;99.90;;;;;;5030110;28;20231;-51
2022/11/18 08:33:41;;;;;;;0.30;0.30;;;8.20;99.90;;;;;;5028645;28;20591;-52
2022/11/18 08:36:11;;;;;;;0.37;0.37;;;8.20;99.90;;;;;;5024932;28;20205;-51
2022/11/18 08:38:39;;;;;;;0.20;0.20;;;8.20;99.90;;;;;;5026107;28;20213;-52
2022/11/18 08:41:07;;;;;;;0.47;0.47;;;8.30;99.90;;;;;;5028812;28;20209;-52
2022/11/18 08:43:34;;;;;;;0.40;0.30;;;8.30;99.90;;;;;;5026599;28;20220;-52
2022/11/18 08:46:01;;;;;;;0.17;0.10;;;8.40;99.90;;;;;;5028322;28;20631;-52
2022/11/18 08:48:28;;;;;;;0.20;0.20;;;8.30;99.90;;;;;;5020495;28;20241;-51
2022/11/18 08:50:57;;;;;;;0.17;0.17;;;8.30;99.90;;;;;;5030190;28;20678;-53
2022/11/18 08:53:24;;;;;;;0.67;0.50;;;8.40;99.90;;;;;;5028229;28;20235;-52
2022/11/18 08:55:57;;;;;;;0.70;0.70;;;8.40;99.90;;;;;;5029406;28;20212;-51
2022/11/18 08:58:24;;;;;;;2.83;1.77;;;8.40;99.90;;;;;;5023380;28;20248;-52
2022/11/18 09:00:51;;;;;;;2.50;1.70;;;8.50;99.90;;;;;;5028837;28;20206;-51
2022/11/18 09:03:18;;;;;;;1.73;1.57;;;8.50;99.90;;;;;;5029175;28;20241;-52
2022/11/18 09:05:45;;;;;;;4.23;2.40;;;8.60;99.90;;;;;;5030033;28;20213;-51
2022/11/18 09:08:12;;;;;;;3.57;2.53;;;8.70;99.90;;;;;;5030004;28;20565;-52
2022/11/18 09:10:39;;;;;;;2.97;2.33;;;8.80;99.90;;;;;;5028493;28;20223;-52
2022/11/18 09:13:08;;;;;;;5.00;3.40;;;8.80;99.90;;;;;;5026688;28;20223;-52
2022/11/18 09:15:35;;;;;;;2.20;2.00;;;8.90;99.90;;;;;;5013867;28;20201;-52
2022/11/18 09:18:02;;;;;;;1.70;1.50;;;8.80;99.90;;;;;;5010417;28;20199;-51
2022/11/18 09:20:29;;;;;;;2.37;1.07;;;8.80;99.90;;;;;;5012048;28;20609;-52
2022/11/18 09:22:56;;;;;;;2.53;1.00;;;8.80;99.90;;;;;;5028948;28;20227;-53
2022/11/18 09:25:23;;;;;;;3.63;1.00;;;8.80;99.90;;;;;;5029461;28;20651;-52
2022/11/18 09:27:51;;;;;;;3.10;2.37;;;8.80;99.90;;;;;;5029960;28;20315;-52
2022/11/18 09:30:20;;;;;;;3.00;2.20;;;8.90;99.90;;;;;;5029781;28;20205;-52
2022/11/18 09:32:47;;;;;;;2.87;2.77;;;8.90;99.90;;;;;;5029734;28;20228;-52
2022/11/18 09:35:14;;;;;;;3.47;3.20;;;8.90;99.90;;;;;;5028302;28;20212;-52
2022/11/18 09:37:41;;;;;;;4.33;3.87;;;8.90;99.90;;;;;;5020617;28;20652;-52
2022/11/18 09:40:16;;;;;;;4.10;3.80;;;9.00;99.90;;;;;;5010535;28;20213;-51
2022/11/18 09:42:56;;;;;;;2.93;2.73;;;9.00;99.90;;;;;;5013076;28;20228;-52
2022/11/18 09:45:28;;;;;;;3.50;3.30;;;9.00;99.90;;;;;;5013311;28;20600;-52
2022/11/18 09:47:58;;;;;;;2.73;1.97;;;9.10;99.90;;;;;;5013822;28;20982;-52
2022/11/18 09:50:25;;;;;;;4.53;3.00;;;9.10;99.90;;;;;;5016295;28;20304;-52
2022/11/18 09:53:04;;;;;;;2.33;2.17;;;9.10;99.90;;;;;;5031849;28;20222;-52
2022/11/18 09:55:33;;;;;;;1.77;1.30;;;9.10;99.90;;;;;;5033412;28;20600;-51
2022/11/18 09:58:01;;;;;;;0.73;0.30;;;9.10;99.90;;;;;;5033466;28;20194;-52
2022/11/18 10:00:31;;;;;;;0.60;0.20;;;9.10;99.90;;;;;;5033248;28;20208;-52
2022/11/18 10:03:00;;;;;;;0.10;0.10;;;9.20;99.90;;;;;;5033110;28;21016;-52
2022/11/18 10:05:31;;;;;;;0.50;0.50;;;9.10;99.90;;;;;;5033209;28;20208;-52
2022/11/18 10:08:08;;;;;;;1.07;0.50;;;9.10;99.90;;;;;;5030332;28;20292;-52
2022/11/18 10:10:43;;;;;;;0.63;0.40;;;9.10;99.90;;;;;;5031985;28;20519;-51
2022/11/18 10:13:20;;;;;;;0.52;0.40;;;9.00;99.90;;;;;;5021883;28;20461;-52
2022/11/18 10:15:57;;;;;;;0.30;0.30;;;9.00;99.90;;;;;;5027874;28;20205;-52
2022/11/18 10:18:30;;;;;;;0.30;0.30;;;9.00;99.90;;;;;;5029181;28;20215;-52
2022/11/18 10:21:05;;;;;;;0.30;0.30;;;9.00;99.90;;;;;;5032763;28;20220;-51
2022/11/18 10:23:35;;;;;;;0.50;0.50;;;9.10;99.90;;;;;;5031413;28;20309;-52
2022/11/18 10:26:02;;;;;;;1.60;1.03;;;9.10;99.90;;;;;;5032321;28;20219;-52
2022/11/18 10:28:30;;;;;;;3.30;2.07;;;9.30;99.90;;;;;;5031919;28;20212;-51
2022/11/18 10:31:06;;;;;;;0.60;0.60;;;9.30;99.90;;;;;;5021393;28;20681;-51
2022/11/18 10:33:33;;;;;;;17.80;11.47;;;9.30;99.90;;;;;;5012098;28;20227;-51
2022/11/18 10:36:26;;;;;;;3.37;3.03;;;9.40;99.90;;;;;;5012578;28;20209;-51
2022/11/18 10:39:07;;;;;;;1.93;0.90;;;9.40;99.90;;;;;;5027784;28;20244;-52
2022/11/18 10:41:41;;;;;;;0.60;0.60;;;9.30;99.90;;;;;;5030679;28;20727;-51
2022/11/18 10:44:30;;;;;;;2.23;1.10;;;9.30;99.90;;;;;;5031534;28;20219;-51
2022/11/18 10:47:16;;;;;;;0.80;0.80;;;9.30;99.90;;;;;;5032177;28;20219;-52
2022/11/18 10:49:43;;;;;;;0.77;0.77;;;9.30;99.90;;;;;;5019730;28;20204;-51
2022/11/18 10:52:12;;;;;;;2.27;0.70;;;9.20;99.90;;;;;;5031249;28;20231;-52
2022/11/18 10:54:39;;;;;;;0.87;0.83;;;9.20;99.90;;;;;;5021408;28;20622;-52
2022/11/18 10:57:14;;;;;;;1.80;0.83;;;9.20;99.90;;;;;;5029565;28;20224;-51
2022/11/18 10:59:46;;;;;;;2.10;0.80;;;9.20;99.90;;;;;;5013430;28;20395;-51
2022/11/18 11:02:19;;;;;;;1.77;0.57;;;9.10;99.90;;;;;;5024801;28;20256;-52
2022/11/18 11:04:47;;;;;;;1.53;1.43;;;9.10;99.90;;;;;;5026471;28;20243;-51
2022/11/18 11:07:17;;;;;;;1.40;1.30;;;9.10;99.90;;;;;;5024539;28;20660;-51
2022/11/18 11:09:44;;;;;;;2.10;1.90;;;9.10;99.90;;;;;;5028048;28;20198;-51
2022/11/18 11:12:14;;;;;;;1.00;0.90;;;9.10;99.90;;;;;;5028992;28;20224;-51
2022/11/18 11:14:50;;;;;;;1.47;1.23;;;9.10;99.90;;;;;;5024471;28;20644;-52
2022/11/18 11:17:21;;;;;;;1.50;0.80;;;9.10;99.90;;;;;;5024474;28;20279;-50
2022/11/18 11:19:52;;;;;;;0.77;0.77;;;9.10;99.90;;;;;;5019770;28;20219;-51
2022/11/18 11:22:20;;;;;;;0.77;0.60;;;9.10;99.90;;;;;;5018333;28;20241;-52
2022/11/18 11:24:47;;;;;;;2.60;0.50;;;9.10;99.90;;;;;;5020454;28;20207;-50
2022/11/18 11:27:47;;;;;;;0.83;0.40;;;9.00;99.90;;;;;;5025807;28;20242;-51
2022/11/18 11:30:18;;;;;;;0.67;0.50;;;9.10;99.90;;;;;;5011682;28;20300;-52
2022/11/18 11:33:22;;;;;;;0.60;0.60;;;9.10;99.90;;;;;;5021766;28;20719;-50
2022/11/18 11:36:01;;;;;;;0.70;0.70;;;9.20;99.90;;;;;;5022856;28;20213;-51
2022/11/18 11:38:43;;;;;;;1.43;0.70;;;9.20;99.90;;;;;;5025625;28;20544;-52
2022/11/18 11:41:20;;;;;;;1.30;0.67;;;9.20;99.90;;;;;;5026897;28;20675;-51
2022/11/18 11:44:00;;;;;;;0.50;0.50;;;9.20;99.90;;;;;;5020349;28;20255;-51
2022/11/18 11:46:39;;;;;;;0.30;0.30;;;9.30;99.90;;;;;;5013194;28;20283;-50
2022/11/18 11:49:18;;;;;;;0.20;0.20;;;9.40;99.90;;;;;;5022463;28;20204;-52
2022/11/18 11:51:51;;;;;;;0.20;0.20;;;9.40;99.90;;;;;;5022260;28;20204;-51
2022/11/18 11:54:41;;;;;;;0.33;0.30;;;9.40;99.90;;;;;;5018249;28;20228;-51
2022/11/18 11:57:21;;;;;;;0.43;0.30;;;9.50;99.90;;;;;;5021549;28;20227;-51
2022/11/18 11:59:58;;;;;;;0.50;0.50;;;9.60;99.90;;;;;;5020033;28;20204;-52
2022/11/18 12:02:43;;;;;;;0.63;0.20;;;9.60;99.90;;;;;;5020541;28;20225;-51
2022/11/18 12:05:22;;;;;;;0.30;0.13;;;9.60;99.90;;;;;;5017392;28;20761;-51
2022/11/18 12:07:54;;;;;;;0.20;0.10;;;9.60;99.90;;;;;;5022091;28;20213;-52
2022/11/18 12:10:30;;;;;;;1.30;0.67;;;9.70;99.90;;;;;;5020048;28;20220;-53
2022/11/18 12:13:11;;;;;;;0.40;0.40;;;9.80;99.90;;;;;;5020485;28;20228;-51
2022/11/18 12:15:51;;;;;;;0.50;0.50;;;9.80;99.90;;;;;;5020739;28;20213;-51
2022/11/18 12:18:24;;;;;;;0.43;0.43;;;9.80;99.90;;;;;;5020609;28;20206;-53
2022/11/18 12:20:53;;;;;;;1.50;0.10;;;9.80;99.90;;;;;;5020229;28;20217;-51
2022/11/18 12:23:22;;;;;;;0.00;0.00;;;9.80;99.90;;;;;;5019655;28;20243;-52
2022/11/18 12:26:02;;;;;;;0.10;0.10;;;9.80;99.90;;;;;;5021958;28;20196;-51
2022/11/18 12:28:32;;;;;;;0.10;0.10;;;9.80;99.90;;;;;;5021346;28;20315;-51
2022/11/18 12:31:32;;;;;;;0.03;0.03;;;9.80;99.90;;;;;;5016390;28;20266;-51
2022/11/18 12:34:02;;;;;;;0.00;0.00;;;9.80;99.90;;;;;;5025244;28;20256;-50
2022/11/18 12:36:33;;;;;;;0.10;0.10;;;9.80;99.90;;;;;;5009954;28;21000;-51
2022/11/18 12:39:38;;;;;;;0.60;0.20;;;9.90;99.90;;;;;;5009918;28;20224;-52
2022/11/18 12:44:53;;;;;;;0.67;0.40;;;10.00;99.90;;;;;;5013457;28;20205;-51
2022/11/18 12:47:57;;;;;;;2.30;1.00;;;10.00;99.90;;;;;;5009861;28;20224;-52
2022/11/18 12:50:48;;;;;;;0.83;0.40;;;10.10;99.90;;;;;;5010494;28;20229;-52
2022/11/18 12:53:35;;;;;;;1.07;0.80;;;10.10;99.90;;;;;;5024808;28;20324;-51
2022/11/18 12:56:12;;;;;;;0.50;0.50;;;10.10;99.90;;;;;;5028043;28;20298;-52
2022/11/18 12:58:45;;;;;;;0.40;0.40;;;10.10;99.90;;;;;;5024077;28;20202;-51
2022/11/18 13:01:16;;;;;;;0.30;0.30;;;10.00;99.90;;;;;;5020487;28;20386;-52
2022/11/18 13:03:43;;;;;;;0.40;0.40;;;9.90;99.90;;;;;;5018054;28;20222;-51
2022/11/18 13:06:25;;;;;;;1.23;0.43;;;9.90;99.90;;;;;;5019764;28;20209;-52
2022/11/18 13:08:59;;;;;;;1.93;0.40;;;9.80;99.90;;;;;;5020516;28;20314;-51
2022/11/18 13:17:53;;;;;;;1.03;0.20;;;9.60;99.90;;;;;;5027616;28;20202;-51
2022/11/18 13:20:29;;;;;;;0.27;0.20;;;9.50;99.90;;;;;;5026098;28;20280;-53
2022/11/18 13:25:46;;;;;;;0.10;0.10;;;9.40;99.90;;;;;;5026764;28;20207;-51
2022/11/18 13:28:23;;;;;;;1.60;0.10;;;9.40;99.90;;;;;;5024163;28;20217;-51
2022/11/18 13:30:56;;;;;;;0.00;0.00;;;9.40;99.90;;;;;;5016391;28;20285;-52
2022/11/18 13:33:24;;;;;;;0.17;0.17;;;9.40;99.90;;;;;;5023513;28;20232;-52
2022/11/18 13:35:52;;;;;;;0.63;0.63;;;9.40;99.90;;;;;;5033915;28;20192;-50
2022/11/18 13:38:23;;;;;;;0.30;0.30;;;9.50;99.90;;;;;;5034253;28;20253;-51
2022/11/18 13:41:06;;;;;;;0.30;0.30;;;9.60;99.90;;;;;;5034289;28;20200;-51